sensor_id;sensor_type;location;lat;lon;timestamp;pressure;altitude;pressure_sealevel;temperature;humidity
71567;BME280;59403;47.456;19.120;2024-01-10T00:00:02;101959.22;;;-3.87;97.43
71567;BME280;59403;47.456;19.120;2024-01-10T00:02:29;101961.75;;;-3.84;95.95
71567;BME280;59403;47.456;19.120;2024-01-10T00:04:56;101959.97;;;-3.81;94.27
71567;BME280;59403;47.456;19.120;2024-01-10T00:07:22;101964.31;;;-3.83;95.38
71567;BME280;59403;47.456;19.120;2024-01-10T00:09:49;101956.53;;;-3.81;95.91
71567;BME280;59403;47.456;19.120;2024-01-10T00:12:16;101961.63;;;-3.78;95.19
71567;BME280;59403;47.456;19.120;2024-01-10T00:14:42;101968.50;;;-3.76;95.60
71567;BME280;59403;47.456;19.120;2024-01-10T00:17:10;101965.13;;;-3.79;96.50
71567;BME280;59403;47.456;19.120;2024-01-10T00:19:37;101966.84;;;-3.80;97.51
71567;BME280;59403;47.456;19.120;2024-01-10T00:22:04;101963.47;;;-3.83;95.85
71567;BME280;59403;47.456;19.120;2024-01-10T00:24:33;101965.41;;;-3.96;96.58
71567;BME280;59403;47.456;19.120;2024-01-10T00:26:59;101969.66;;;-3.92;95.76
71567;BME280;59403;47.456;19.120;2024-01-10T00:29:26;101966.19;;;-3.92;97.60
71567;BME280;59403;47.456;19.120;2024-01-10T00:31:52;101970.84;;;-4.11;97.50
71567;BME280;59403;47.456;19.120;2024-01-10T00:34:20;101970.88;;;-4.12;98.54
71567;BME280;59403;47.456;19.120;2024-01-10T00:36:47;101963.84;;;-4.04;98.00
71567;BME280;59403;47.456;19.120;2024-01-10T00:39:14;101965.56;;;-4.03;96.93
71567;BME280;59403;47.456;19.120;2024-01-10T00:41:41;101972.56;;;-4.10;97.73
71567;BME280;59403;47.456;19.120;2024-01-10T00:44:08;101972.69;;;-4.17;98.18
71567;BME280;59403;47.456;19.120;2024-01-10T00:46:34;101969.97;;;-4.10;97.20
71567;BME280;59403;47.456;19.120;2024-01-10T00:49:01;101973.31;;;-4.05;97.25
71567;BME280;59403;47.456;19.120;2024-01-10T00:51:30;101974.19;;;-4.04;98.26
71567;BME280;59403;47.456;19.120;2024-01-10T00:53:56;101958.00;;;-4.14;97.84
71567;BME280;59403;47.456;19.120;2024-01-10T00:56:23;101976.72;;;-4.00;96.93
71567;BME280;59403;47.456;19.120;2024-01-10T00:58:49;101972.50;;;-4.05;98.43
71567;BME280;59403;47.456;19.120;2024-01-10T01:01:16;101975.06;;;-4.05;98.27
71567;BME280;59403;47.456;19.120;2024-01-10T01:03:42;101974.97;;;-4.01;98.83
71567;BME280;59403;47.456;19.120;2024-01-10T01:06:09;101976.91;;;-4.10;100.00
71567;BME280;59403;47.456;19.120;2024-01-10T01:08:38;101972.56;;;-4.10;98.96
71567;BME280;59403;47.456;19.120;2024-01-10T01:11:05;101981.41;;;-4.23;97.81
71567;BME280;59403;47.456;19.120;2024-01-10T01:13:32;101980.50;;;-4.19;98.57
71567;BME280;59403;47.456;19.120;2024-01-10T01:15:58;101986.50;;;-4.18;98.60
71567;BME280;59403;47.456;19.120;2024-01-10T01:18:25;101974.44;;;-4.18;99.14
71567;BME280;59403;47.456;19.120;2024-01-10T01:20:52;101971.00;;;-4.20;98.35
71567;BME280;59403;47.456;19.120;2024-01-10T01:23:18;101977.00;;;-4.18;98.61
71567;BME280;59403;47.456;19.120;2024-01-10T01:25:47;101978.75;;;-4.20;98.54
71567;BME280;59403;47.456;19.120;2024-01-10T01:28:13;101979.66;;;-4.21;98.87
71567;BME280;59403;47.456;19.120;2024-01-10T01:30:40;101978.72;;;-4.18;98.79
71567;BME280;59403;47.456;19.120;2024-01-10T01:33:06;101980.56;;;-4.23;98.69
71567;BME280;59403;47.456;19.120;2024-01-10T01:35:33;101980.72;;;-4.34;98.80
71567;BME280;59403;47.456;19.120;2024-01-10T01:37:59;101979.81;;;-4.30;98.63
71567;BME280;59403;47.456;19.120;2024-01-10T01:40:26;101966.91;;;-4.31;99.41
71567;BME280;59403;47.456;19.120;2024-01-10T01:42:54;101970.25;;;-4.26;99.20
71567;BME280;59403;47.456;19.120;2024-01-10T01:45:20;101971.16;;;-4.29;98.88
71567;BME280;59403;47.456;19.120;2024-01-10T01:47:47;101972.81;;;-4.25;99.00
71567;BME280;59403;47.456;19.120;2024-01-10T01:50:13;101968.56;;;-4.29;99.30
71567;BME280;59403;47.456;19.120;2024-01-10T01:52:39;101961.75;;;-4.33;99.77
71567;BME280;59403;47.456;19.120;2024-01-10T01:55:08;101961.72;;;-4.31;100.00
71567;BME280;59403;47.456;19.120;2024-01-10T01:57:35;101964.34;;;-4.33;99.33
71567;BME280;59403;47.456;19.120;2024-01-10T02:00:04;101964.38;;;-4.36;98.53
71567;BME280;59403;47.456;19.120;2024-01-10T02:05:06;101961.09;;;-4.45;99.21
71567;BME280;59403;47.456;19.120;2024-01-10T02:07:33;101960.34;;;-4.52;99.53
71567;BME280;59403;47.456;19.120;2024-01-10T02:09:59;101968.81;;;-4.42;99.81
71567;BME280;59403;47.456;19.120;2024-01-10T02:12:26;101943.97;;;-4.52;99.99
71567;BME280;59403;47.456;19.120;2024-01-10T02:14:53;101961.97;;;-4.45;100.00
71567;BME280;59403;47.456;19.120;2024-01-10T02:17:21;101959.34;;;-4.43;99.50
71567;BME280;59403;47.456;19.120;2024-01-10T02:19:49;101940.69;;;-4.64;99.88
71567;BME280;59403;47.456;19.120;2024-01-10T02:22:23;101950.75;;;-4.45;99.36
71567;BME280;59403;47.456;19.120;2024-01-10T03:03:34;101947.69;;;-4.70;97.01
71567;BME280;59403;47.456;19.120;2024-01-10T03:06:01;101954.63;;;-4.72;96.63
71567;BME280;59403;47.456;19.120;2024-01-10T03:08:27;101949.56;;;-4.78;96.30
71567;BME280;59403;47.456;19.120;2024-01-10T03:10:54;101954.69;;;-4.75;95.38
71567;BME280;59403;47.456;19.120;2024-01-10T03:13:21;101951.19;;;-4.74;95.48
71567;BME280;59403;47.456;19.120;2024-01-10T03:15:47;101953.72;;;-4.68;95.21
71567;BME280;59403;47.456;19.120;2024-01-10T03:18:14;101959.72;;;-4.66;94.88
71567;BME280;59403;47.456;19.120;2024-01-10T03:20:42;101954.53;;;-4.66;94.82
71567;BME280;59403;47.456;19.120;2024-01-10T03:23:09;101957.97;;;-4.66;94.15
71567;BME280;59403;47.456;19.120;2024-01-10T03:25:36;101955.37;;;-4.64;93.29
71567;BME280;59403;47.456;19.120;2024-01-10T03:28:03;101956.19;;;-4.60;92.83
71567;BME280;59403;47.456;19.120;2024-01-10T03:30:30;101958.81;;;-4.65;92.67
71567;BME280;59403;47.456;19.120;2024-01-10T03:32:56;101960.59;;;-4.69;92.54
71567;BME280;59403;47.456;19.120;2024-01-10T03:35:23;101956.25;;;-4.67;92.87
71567;BME280;59403;47.456;19.120;2024-01-10T03:37:51;101952.06;;;-4.74;92.50
71567;BME280;59403;47.456;19.120;2024-01-10T03:40:17;101952.06;;;-4.74;92.65
71567;BME280;59403;47.456;19.120;2024-01-10T03:42:44;101946.13;;;-4.80;92.76
71567;BME280;59403;47.456;19.120;2024-01-10T03:45:11;101950.50;;;-4.84;92.86
71567;BME280;59403;47.456;19.120;2024-01-10T03:47:37;101949.59;;;-4.81;93.05
71567;BME280;59403;47.456;19.120;2024-01-10T03:50:05;101945.25;;;-4.79;92.59
71567;BME280;59403;47.456;19.120;2024-01-10T03:52:32;101947.16;;;-4.90;93.07
71567;BME280;59403;47.456;19.120;2024-01-10T03:55:00;101951.50;;;-4.92;93.92
71567;BME280;59403;47.456;19.120;2024-01-10T03:57:26;101947.84;;;-4.79;93.75
71567;BME280;59403;47.456;19.120;2024-01-10T03:59:53;101953.91;;;-4.82;93.36
71567;BME280;59403;47.456;19.120;2024-01-10T04:02:20;101953.91;;;-4.80;93.66
71567;BME280;59403;47.456;19.120;2024-01-10T04:04:46;101951.25;;;-4.77;94.53
71567;BME280;59403;47.456;19.120;2024-01-10T04:07:13;101952.97;;;-4.76;95.88
71567;BME280;59403;47.456;19.120;2024-01-10T04:09:39;101958.09;;;-4.73;94.64
71567;BME280;59403;47.456;19.120;2024-01-10T04:12:11;101950.38;;;-4.75;96.71
71567;BME280;59403;47.456;19.120;2024-01-10T04:14:37;101948.66;;;-4.76;96.82
71567;BME280;59403;47.456;19.120;2024-01-10T04:17:04;101957.34;;;-4.80;95.95
71567;BME280;59403;47.456;19.120;2024-01-10T04:19:32;101952.22;;;-4.84;96.37
71567;BME280;59403;47.456;19.120;2024-01-10T04:21:59;101953.13;;;-4.87;95.60
71567;BME280;59403;47.456;19.120;2024-01-10T04:24:25;101953.94;;;-4.83;95.45
71567;BME280;59403;47.456;19.120;2024-01-10T04:26:52;101960.03;;;-4.87;96.11
71567;BME280;59403;47.456;19.120;2024-01-10T04:29:20;101957.47;;;-4.89;95.24
71567;BME280;59403;47.456;19.120;2024-01-10T04:31:46;101960.16;;;-4.96;95.13
71567;BME280;59403;47.456;19.120;2024-01-10T04:34:14;101954.28;;;-5.06;95.20
71567;BME280;59403;47.456;19.120;2024-01-10T04:36:40;101952.63;;;-5.11;95.10
71567;BME280;59403;47.456;19.120;2024-01-10T04:39:07;101955.19;;;-5.11;95.10
71567;BME280;59403;47.456;19.120;2024-01-10T04:41:33;101963.81;;;-5.12;94.95
71567;BME280;59403;47.456;19.120;2024-01-10T04:44:00;101958.56;;;-5.06;94.78
71567;BME280;59403;47.456;19.120;2024-01-10T04:46:28;101966.31;;;-5.06;94.99
71567;BME280;59403;47.456;19.120;2024-01-10T04:48:55;101962.00;;;-5.06;94.73
71567;BME280;59403;47.456;19.120;2024-01-10T04:51:21;101973.13;;;-5.01;95.05
71567;BME280;59403;47.456;19.120;2024-01-10T04:53:48;101971.34;;;-4.96;94.94
71567;BME280;59403;47.456;19.120;2024-01-10T04:56:15;101968.63;;;-4.88;95.26
71567;BME280;59403;47.456;19.120;2024-01-10T04:58:44;101969.63;;;-4.97;97.56
71567;BME280;59403;47.456;19.120;2024-01-10T05:01:11;101977.44;;;-5.01;95.73
71567;BME280;59403;47.456;19.120;2024-01-10T05:03:38;101971.28;;;-4.93;95.39
71567;BME280;59403;47.456;19.120;2024-01-10T05:06:05;101976.50;;;-4.96;96.02
71567;BME280;59403;47.456;19.120;2024-01-10T05:08:32;101974.78;;;-4.95;95.99
71567;BME280;59403;47.456;19.120;2024-01-10T05:10:59;101975.72;;;-5.01;96.48
71567;BME280;59403;47.456;19.120;2024-01-10T05:13:26;101975.75;;;-5.02;97.38
71567;BME280;59403;47.456;19.120;2024-01-10T05:15:52;101980.22;;;-5.16;97.00
71567;BME280;59403;47.456;19.120;2024-01-10T05:18:20;101977.62;;;-5.15;97.47
71567;BME280;59403;47.456;19.120;2024-01-10T05:20:48;101971.66;;;-5.18;97.72
71567;BME280;59403;47.456;19.120;2024-01-10T05:23:15;101981.88;;;-5.12;97.72
71567;BME280;59403;47.456;19.120;2024-01-10T05:25:42;101976.75;;;-5.14;98.10
71567;BME280;59403;47.456;19.120;2024-01-10T05:28:09;101978.31;;;-5.04;98.02
71567;BME280;59403;47.456;19.120;2024-01-10T05:30:35;101977.41;;;-5.00;97.64
71567;BME280;59403;47.456;19.120;2024-01-10T05:33:02;101983.53;;;-5.07;98.67
71567;BME280;59403;47.456;19.120;2024-01-10T05:35:28;101979.31;;;-5.14;97.91
71567;BME280;59403;47.456;19.120;2024-01-10T05:37:56;101975.91;;;-5.14;98.74
71567;BME280;59403;47.456;19.120;2024-01-10T05:40:22;101978.47;;;-5.16;98.20
71567;BME280;59403;47.456;19.120;2024-01-10T05:42:49;101982.00;;;-5.20;98.87
71567;BME280;59403;47.456;19.120;2024-01-10T05:45:16;101972.47;;;-5.16;98.65
71567;BME280;59403;47.456;19.120;2024-01-10T05:47:43;101967.38;;;-5.21;100.00
71567;BME280;59403;47.456;19.120;2024-01-10T05:50:10;101970.84;;;-5.22;100.00
71567;BME280;59403;47.456;19.120;2024-01-10T05:52:37;101974.38;;;-5.30;99.81
71567;BME280;59403;47.456;19.120;2024-01-10T05:55:06;101976.22;;;-5.41;99.42
71567;BME280;59403;47.456;19.120;2024-01-10T05:57:34;101972.78;;;-5.40;99.78
71567;BME280;59403;47.456;19.120;2024-01-10T06:00:00;101977.06;;;-5.38;99.62
71567;BME280;59403;47.456;19.120;2024-01-10T06:02:28;101967.62;;;-5.40;99.53
71567;BME280;59403;47.456;19.120;2024-01-10T06:04:57;101971.88;;;-5.38;98.93
71567;BME280;59403;47.456;19.120;2024-01-10T06:07:30;101982.22;;;-5.39;99.06
71567;BME280;59403;47.456;19.120;2024-01-10T06:09:57;101973.63;;;-5.40;99.08
71567;BME280;59403;47.456;19.120;2024-01-10T06:12:25;101979.59;;;-5.36;98.54
71567;BME280;59403;47.456;19.120;2024-01-10T06:14:51;101983.91;;;-5.35;98.17
71567;BME280;59403;47.456;19.120;2024-01-10T06:17:18;101982.97;;;-5.31;98.82
71567;BME280;59403;47.456;19.120;2024-01-10T06:19:45;101980.38;;;-5.27;99.16
71567;BME280;59403;47.456;19.120;2024-01-10T06:22:11;101993.25;;;-5.25;99.74
71567;BME280;59403;47.456;19.120;2024-01-10T06:24:38;101993.28;;;-5.27;99.82
71567;BME280;59403;47.456;19.120;2024-01-10T06:27:06;101984.62;;;-5.26;99.24
71567;BME280;59403;47.456;19.120;2024-01-10T06:29:34;101987.28;;;-5.30;98.91
71567;BME280;59403;47.456;19.120;2024-01-10T06:32:02;101995.00;;;-5.27;99.00
71567;BME280;59403;47.456;19.120;2024-01-10T06:34:29;101995.00;;;-5.29;98.90
71567;BME280;59403;47.456;19.120;2024-01-10T06:36:55;102001.03;;;-5.30;100.00
71567;BME280;59403;47.456;19.120;2024-01-10T06:39:22;101997.62;;;-5.32;100.00
71567;BME280;59403;47.456;19.120;2024-01-10T06:41:49;101999.31;;;-5.29;100.00
71567;BME280;59403;47.456;19.120;2024-01-10T06:44:16;102001.97;;;-5.34;100.00
71567;BME280;59403;47.456;19.120;2024-01-10T06:46:45;102009.63;;;-5.29;100.00
71567;BME280;59403;47.456;19.120;2024-01-10T06:49:12;102010.53;;;-5.30;100.00
71567;BME280;59403;47.456;19.120;2024-01-10T06:51:38;102014.84;;;-5.32;100.00
71567;BME280;59403;47.456;19.120;2024-01-10T06:54:05;102021.69;;;-5.31;100.00
71567;BME280;59403;47.456;19.120;2024-01-10T06:56:32;102022.50;;;-5.25;100.00
71567;BME280;59403;47.456;19.120;2024-01-10T06:59:00;102020.78;;;-5.26;100.00
71567;BME280;59403;47.456;19.120;2024-01-10T07:01:27;102018.28;;;-5.32;100.00
71567;BME280;59403;47.456;19.120;2024-01-10T07:03:55;102030.25;;;-5.25;100.00
71567;BME280;59403;47.456;19.120;2024-01-10T07:06:22;102033.66;;;-5.21;100.00
71567;BME280;59403;47.456;19.120;2024-01-10T07:08:50;102024.16;;;-5.21;100.00
71567;BME280;59403;47.456;19.120;2024-01-10T07:11:17;102030.25;;;-5.25;100.00
71567;BME280;59403;47.456;19.120;2024-01-10T07:13:44;102039.63;;;-5.19;100.00
71567;BME280;59403;47.456;19.120;2024-01-10T07:16:12;102036.97;;;-5.12;100.00
71567;BME280;59403;47.456;19.120;2024-01-10T07:18:40;102034.34;;;-5.10;100.00
71567;BME280;59403;47.456;19.120;2024-01-10T07:21:08;102026.72;;;-5.18;100.00
71567;BME280;59403;47.456;19.120;2024-01-10T07:23:35;102034.47;;;-5.21;100.00
71567;BME280;59403;47.456;19.120;2024-01-10T07:26:03;102026.78;;;-5.24;100.00
71567;BME280;59403;47.456;19.120;2024-01-10T07:28:30;102025.00;;;-5.19;100.00
71567;BME280;59403;47.456;19.120;2024-01-10T07:30:58;102025.91;;;-5.23;100.00
71567;BME280;59403;47.456;19.120;2024-01-10T07:33:25;102018.16;;;-5.21;100.00
71567;BME280;59403;47.456;19.120;2024-01-10T07:35:51;102025.75;;;-5.09;100.00
71567;BME280;59403;47.456;19.120;2024-01-10T07:38:21;102025.75;;;-5.08;100.00
71567;BME280;59403;47.456;19.120;2024-01-10T07:40:48;102024.75;;;-4.99;100.00
71567;BME280;59403;47.456;19.120;2024-01-10T07:43:15;102025.53;;;-4.93;100.00
71567;BME280;59403;47.456;19.120;2024-01-10T07:45:41;102022.00;;;-4.86;100.00
71567;BME280;59403;47.456;19.120;2024-01-10T07:48:08;102021.16;;;-4.88;100.00
71567;BME280;59403;47.456;19.120;2024-01-10T07:50:36;102030.66;;;-4.90;100.00
71567;BME280;59403;47.456;19.120;2024-01-10T07:53:03;102027.09;;;-4.81;99.73
71567;BME280;59403;47.456;19.120;2024-01-10T07:55:32;102033.13;;;-4.82;99.34
71567;BME280;59403;47.456;19.120;2024-01-10T07:57:58;102032.25;;;-4.81;98.05
71567;BME280;59403;47.456;19.120;2024-01-10T08:00:26;102033.06;;;-4.78;97.13
71567;BME280;59403;47.456;19.120;2024-01-10T08:02:53;102035.59;;;-4.73;96.14
71567;BME280;59403;47.456;19.120;2024-01-10T08:05:19;102034.59;;;-4.63;97.27
71567;BME280;59403;47.456;19.120;2024-01-10T08:07:47;102040.53;;;-4.56;96.10
71567;BME280;59403;47.456;19.120;2024-01-10T08:10:13;102039.56;;;-4.49;95.70
71567;BME280;59403;47.456;19.120;2024-01-10T08:12:42;102042.12;;;-4.48;94.90
71567;BME280;59403;47.456;19.120;2024-01-10T08:15:11;102037.75;;;-4.41;96.02
71567;BME280;59403;47.456;19.120;2024-01-10T08:17:37;102043.69;;;-4.36;95.40
71567;BME280;59403;47.456;19.120;2024-01-10T08:20:05;102042.78;;;-4.34;96.00
71567;BME280;59403;47.456;19.120;2024-01-10T08:22:32;102047.84;;;-4.26;95.65
71567;BME280;59403;47.456;19.120;2024-01-10T08:24:59;102047.78;;;-4.23;94.51
71567;BME280;59403;47.456;19.120;2024-01-10T08:27:26;102045.12;;;-4.20;93.60
71567;BME280;59403;47.456;19.120;2024-01-10T08:29:54;102048.44;;;-4.11;93.85
71567;BME280;59403;47.456;19.120;2024-01-10T08:32:20;102047.59;;;-4.11;92.12
71567;BME280;59403;47.456;19.120;2024-01-10T08:34:48;102058.66;;;-4.02;91.58
71567;BME280;59403;47.456;19.120;2024-01-10T08:37:15;102057.69;;;-3.98;90.84
71567;BME280;59403;47.456;19.120;2024-01-10T08:39:42;102060.13;;;-3.86;91.25
71567;BME280;59403;47.456;19.120;2024-01-10T08:42:09;102059.38;;;-3.94;88.94
71567;BME280;59403;47.456;19.120;2024-01-10T08:44:36;102061.91;;;-3.89;88.88
71567;BME280;59403;47.456;19.120;2024-01-10T08:47:07;102055.72;;;-3.81;88.00
71567;BME280;59403;47.456;19.120;2024-01-10T08:49:34;102052.88;;;-3.67;87.54
71567;BME280;59403;47.456;19.120;2024-01-10T08:52:01;102055.31;;;-3.58;86.69
71567;BME280;59403;47.456;19.120;2024-01-10T08:54:28;102059.63;;;-3.59;85.49
71567;BME280;59403;47.456;19.120;2024-01-10T08:56:55;102054.06;;;-3.37;82.17
71567;BME280;59403;47.456;19.120;2024-01-10T08:59:22;102057.28;;;-3.25;82.03
71567;BME280;59403;47.456;19.120;2024-01-10T09:01:48;102052.09;;;-3.25;83.07
71567;BME280;59403;47.456;19.120;2024-01-10T09:04:16;102058.84;;;-3.18;83.94
71567;BME280;59403;47.456;19.120;2024-01-10T09:06:43;102052.75;;;-3.15;82.31
71567;BME280;59403;47.456;19.120;2024-01-10T09:09:09;102050.00;;;-3.06;80.39
71567;BME280;59403;47.456;19.120;2024-01-10T09:11:38;102039.34;;;-2.93;79.02
71567;BME280;59403;47.456;19.120;2024-01-10T09:14:05;102048.75;;;-2.89;79.56
71567;BME280;59403;47.456;19.120;2024-01-10T09:16:31;102046.03;;;-2.83;79.81
71567;BME280;59403;47.456;19.120;2024-01-10T09:18:58;102053.53;;;-2.71;76.48
71567;BME280;59403;47.456;19.120;2024-01-10T09:21:26;102043.13;;;-2.68;78.19
71567;BME280;59403;47.456;19.120;2024-01-10T09:23:53;102042.09;;;-2.61;76.70
71567;BME280;59403;47.456;19.120;2024-01-10T09:26:21;102038.50;;;-2.55;77.46
71567;BME280;59403;47.456;19.120;2024-01-10T09:28:47;102037.44;;;-2.47;76.51
71567;BME280;59403;47.456;19.120;2024-01-10T09:31:14;102026.69;;;-2.30;76.94
71567;BME280;59403;47.456;19.120;2024-01-10T09:33:41;102028.25;;;-2.23;70.74
71567;BME280;59403;47.456;19.120;2024-01-10T09:36:08;102027.22;;;-2.16;71.99
71567;BME280;59403;47.456;19.120;2024-01-10T09:38:36;102035.78;;;-2.12;71.44
71567;BME280;59403;47.456;19.120;2024-01-10T09:41:04;102026.22;;;-2.10;72.16
71567;BME280;59403;47.456;19.120;2024-01-10T09:43:31;102026.06;;;-2.04;68.91
71567;BME280;59403;47.456;19.120;2024-01-10T09:46:00;102023.37;;;-2.00;68.12
71567;BME280;59403;47.456;19.120;2024-01-10T09:48:27;102026.47;;;-1.87;67.86
71567;BME280;59403;47.456;19.120;2024-01-10T09:50:55;102021.03;;;-1.77;69.83
71567;BME280;59403;47.456;19.120;2024-01-10T09:53:23;102024.34;;;-1.72;64.83
71567;BME280;59403;47.456;19.120;2024-01-10T09:55:51;102012.03;;;-1.64;61.63
71567;BME280;59403;47.456;19.120;2024-01-10T09:58:18;102014.59;;;-1.62;60.00
71567;BME280;59403;47.456;19.120;2024-01-10T10:00:44;102009.91;;;-1.50;62.83
71567;BME280;59403;47.456;19.120;2024-01-10T10:03:11;102016.81;;;-1.49;60.05
71567;BME280;59403;47.456;19.120;2024-01-10T10:05:39;102008.63;;;-1.35;61.76
71567;BME280;59403;47.456;19.120;2024-01-10T10:08:08;101996.34;;;-1.30;63.39
71567;BME280;59403;47.456;19.120;2024-01-10T10:10:35;101989.44;;;-1.30;61.83
71567;BME280;59403;47.456;19.120;2024-01-10T10:13:07;101994.75;;;-1.34;64.05
71567;BME280;59403;47.456;19.120;2024-01-10T10:15:36;101996.50;;;-1.35;65.67
71567;BME280;59403;47.456;19.120;2024-01-10T10:18:03;101992.16;;;-1.34;64.93
71567;BME280;59403;47.456;19.120;2024-01-10T10:20:31;101979.22;;;-1.36;66.74
71567;BME280;59403;47.456;19.120;2024-01-10T10:23:00;101981.81;;;-1.36;66.75
71567;BME280;59403;47.456;19.120;2024-01-10T10:25:28;101980.88;;;-1.33;65.11
71567;BME280;59403;47.456;19.120;2024-01-10T10:27:56;101983.41;;;-1.32;63.67
71567;BME280;59403;47.456;19.120;2024-01-10T10:30:24;101972.97;;;-1.30;65.45
71567;BME280;59403;47.456;19.120;2024-01-10T10:32:50;101980.75;;;-1.29;65.92
71567;BME280;59403;47.456;19.120;2024-01-10T10:35:18;101980.00;;;-1.32;64.20
71567;BME280;59403;47.456;19.120;2024-01-10T10:37:46;101974.56;;;-1.25;63.17
71567;BME280;59403;47.456;19.120;2024-01-10T10:40:13;101976.69;;;-1.08;60.93
71567;BME280;59403;47.456;19.120;2024-01-10T10:42:44;101963.03;;;-1.16;62.31
71567;BME280;59403;47.456;19.120;2024-01-10T10:45:12;101965.53;;;-1.11;60.85
71567;BME280;59403;47.456;19.120;2024-01-10T10:47:43;101960.72;;;-0.96;59.71
71567;BME280;59403;47.456;19.120;2024-01-10T10:50:13;101951.31;;;-1.00;60.74
71567;BME280;59403;47.456;19.120;2024-01-10T10:52:42;101956.94;;;-0.86;59.64
71567;BME280;59403;47.456;19.120;2024-01-10T10:55:13;101952.28;;;-0.76;60.61
71567;BME280;59403;47.456;19.120;2024-01-10T10:57:41;101947.09;;;-0.76;58.58
71567;BME280;59403;47.456;19.120;2024-01-10T11:00:10;101944.69;;;-0.82;58.85
71567;BME280;59403;47.456;19.120;2024-01-10T11:02:42;101944.47;;;-0.75;58.64
71567;BME280;59403;47.456;19.120;2024-01-10T11:05:09;101941.47;;;-0.63;55.56
71567;BME280;59403;47.456;19.120;2024-01-10T11:07:36;101943.00;;;-0.57;56.52
71567;BME280;59403;47.456;19.120;2024-01-10T11:10:05;101936.97;;;-0.58;57.50
71567;BME280;59403;47.456;19.120;2024-01-10T11:12:53;101940.28;;;-0.53;57.25
71567;BME280;59403;47.456;19.120;2024-01-10T11:15:35;101937.03;;;-0.33;53.44
71567;BME280;59403;47.456;19.120;2024-01-10T11:18:19;101933.97;;;-0.46;55.19
71567;BME280;59403;47.456;19.120;2024-01-10T11:21:05;101921.78;;;-0.44;56.91
71567;BME280;59403;47.456;19.120;2024-01-10T11:23:42;101920.56;;;-0.34;56.75
71567;BME280;59403;47.456;19.120;2024-01-10T11:26:11;101919.75;;;-0.36;56.63
71567;BME280;59403;47.456;19.120;2024-01-10T11:28:38;101923.28;;;-0.37;57.11
71567;BME280;59403;47.456;19.120;2024-01-10T11:31:06;101920.91;;;-0.18;56.88
71567;BME280;59403;47.456;19.120;2024-01-10T11:33:36;101916.62;;;-0.21;57.65
71567;BME280;59403;47.456;19.120;2024-01-10T11:36:09;101916.34;;;-0.12;54.59
71567;BME280;59403;47.456;19.120;2024-01-10T11:38:45;101917.75;;;-0.28;57.55
71567;BME280;59403;47.456;19.120;2024-01-10T11:41:24;101908.69;;;-0.16;56.92
71567;BME280;59403;47.456;19.120;2024-01-10T11:44:27;101907.87;;;-0.18;57.16
71567;BME280;59403;47.456;19.120;2024-01-10T11:46:54;101907.72;;;-0.14;57.09
71567;BME280;59403;47.456;19.120;2024-01-10T11:49:24;101900.25;;;-0.23;57.76
71567;BME280;59403;47.456;19.120;2024-01-10T11:51:54;101899.78;;;-0.09;57.69
71567;BME280;59403;47.456;19.120;2024-01-10T11:54:41;101888.50;;;-0.10;58.41
71567;BME280;59403;47.456;19.120;2024-01-10T11:57:12;101897.22;;;-0.11;60.33
71567;BME280;59403;47.456;19.120;2024-01-10T11:59:41;101894.25;;;0.00;63.16
71567;BME280;59403;47.456;19.120;2024-01-10T12:02:08;101889.81;;;0.02;64.89
71567;BME280;59403;47.456;19.120;2024-01-10T12:04:36;101882.22;;;-0.04;63.76
71567;BME280;59403;47.456;19.120;2024-01-10T12:07:04;101884.03;;;0.19;62.38
71567;BME280;59403;47.456;19.120;2024-01-10T12:09:33;101876.16;;;0.20;63.41
71567;BME280;59403;47.456;19.120;2024-01-10T12:11:59;101875.53;;;0.14;62.25
71567;BME280;59403;47.456;19.120;2024-01-10T12:14:27;101870.31;;;0.14;63.93
71567;BME280;59403;47.456;19.120;2024-01-10T12:16:54;101869.12;;;0.22;64.06
71567;BME280;59403;47.456;19.120;2024-01-10T12:19:20;101876.22;;;0.19;64.99
71567;BME280;59403;47.456;19.120;2024-01-10T12:21:49;101880.63;;;0.17;64.64
71567;BME280;59403;47.456;19.120;2024-01-10T12:24:17;101883.16;;;0.18;65.80
71567;BME280;59403;47.456;19.120;2024-01-10T12:26:44;101882.66;;;0.32;63.18
71567;BME280;59403;47.456;19.120;2024-01-10T12:29:11;101885.78;;;0.41;60.85
71567;BME280;59403;47.456;19.120;2024-01-10T12:31:38;101884.03;;;0.42;61.65
71567;BME280;59403;47.456;19.120;2024-01-10T12:34:07;101879.09;;;0.34;62.70
71567;BME280;59403;47.456;19.120;2024-01-10T12:36:34;101880.00;;;0.33;62.34
71567;BME280;59403;47.456;19.120;2024-01-10T12:39:02;101878.09;;;0.38;62.41
71567;BME280;59403;47.456;19.120;2024-01-10T12:41:29;101875.69;;;0.32;63.69
71567;BME280;59403;47.456;19.120;2024-01-10T12:43:56;101875.44;;;0.40;63.66
71567;BME280;59403;47.456;19.120;2024-01-10T12:46:22;101878.25;;;0.34;66.23
71567;BME280;59403;47.456;19.120;2024-01-10T12:48:58;101864.88;;;0.43;64.62
71567;BME280;59403;47.456;19.120;2024-01-10T12:51:26;101862.28;;;0.43;63.37
71567;BME280;59403;47.456;19.120;2024-01-10T12:53:53;101862.78;;;0.52;63.35
71567;BME280;59403;47.456;19.120;2024-01-10T12:56:21;101854.94;;;0.52;64.42
71567;BME280;59403;47.456;19.120;2024-01-10T12:58:48;101850.44;;;0.57;62.83
71567;BME280;59403;47.456;19.120;2024-01-10T13:01:14;101853.72;;;0.62;62.08
71567;BME280;59403;47.456;19.120;2024-01-10T13:03:41;101857.13;;;0.64;61.60
71567;BME280;59403;47.456;19.120;2024-01-10T13:06:09;101855.66;;;0.57;62.41
71567;BME280;59403;47.456;19.120;2024-01-10T13:08:36;101852.59;;;0.68;61.69
71567;BME280;59403;47.456;19.120;2024-01-10T13:11:03;101851.13;;;0.62;62.82
71567;BME280;59403;47.456;19.120;2024-01-10T13:13:35;101857.00;;;0.67;63.17
71567;BME280;59403;47.456;19.120;2024-01-10T13:16:01;101851.44;;;0.76;62.55
71567;BME280;59403;47.456;19.120;2024-01-10T13:18:28;101849.12;;;0.69;64.69
71567;BME280;59403;47.456;19.120;2024-01-10T13:20:55;101847.47;;;0.66;65.45
71567;BME280;59403;47.456;19.120;2024-01-10T13:23:22;101842.25;;;0.66;64.70